createdAt,value
2022-11-28T00:02:55.434Z,46.70
2022-11-28T00:06:06.332Z,40.10
2022-11-28T00:09:13.416Z,36.40
2022-11-28T00:12:19.584Z,38.80
2022-11-28T00:15:25.724Z,37.80
2022-11-28T00:18:32.558Z,36.00
2022-11-28T00:21:39.061Z,35.80
2022-11-28T00:24:45.273Z,36.00
2022-11-28T00:27:51.545Z,36.40
2022-11-28T00:34:03.050Z,34.00
2022-11-28T00:37:09.020Z,32.30
2022-11-28T00:40:15.367Z,31.80
2022-11-28T00:43:21.449Z,31.30
2022-11-28T00:46:28.549Z,30.50
2022-11-28T00:49:34.656Z,30.30
2022-11-28T00:52:40.840Z,30.70
2022-11-28T00:55:47.225Z,31.40
2022-11-28T00:58:53.791Z,29.30
2022-11-28T01:01:59.907Z,28.80
2022-11-28T01:05:06.598Z,27.70
2022-11-28T01:08:12.891Z,27.30
2022-11-28T01:14:25.063Z,28.90
2022-11-28T01:17:31.188Z,29.60
2022-11-28T01:20:37.250Z,28.80
2022-11-28T01:23:43.324Z,28.10
2022-11-28T01:26:49.557Z,30.30
2022-11-28T01:29:55.836Z,28.90
2022-11-28T01:36:07.969Z,29.10
2022-11-28T01:39:15.926Z,28.30
2022-11-28T01:42:22.973Z,28.00
2022-11-28T01:45:36.227Z,31.00
2022-11-28T01:48:44.832Z,29.00
2022-11-28T01:51:56.053Z,28.70
2022-11-28T01:55:03.513Z,27.70
2022-11-28T01:58:10.778Z,26.30
2022-11-28T02:01:18.029Z,29.30
2022-11-28T02:04:27.152Z,26.20
2022-11-28T02:07:33.573Z,25.70
2022-11-28T02:10:51.537Z,26.10
2022-11-28T02:14:08.523Z,24.50
2022-11-28T02:17:23.779Z,24.40
2022-11-28T02:20:59.115Z,26.50
2022-11-28T02:24:41.385Z,29.60
2022-11-28T02:28:13.876Z,26.80
2022-11-28T02:31:36.623Z,25.70
2022-11-28T02:34:52.296Z,26.60
2022-11-28T02:38:10.542Z,24.90
2022-11-28T02:41:27.132Z,24.80
2022-11-28T02:44:40.073Z,24.60
2022-11-28T02:47:51.381Z,24.40
2022-11-28T02:51:02.623Z,23.10
2022-11-28T02:54:11.811Z,22.70
2022-11-28T02:57:17.873Z,22.80
2022-11-28T03:00:30.761Z,23.30
2022-11-28T03:03:49.933Z,22.50
2022-11-28T03:07:06.720Z,22.30
2022-11-28T03:10:24.736Z,21.90
2022-11-28T03:13:47.603Z,20.30
2022-11-28T03:17:08.726Z,22.60
2022-11-28T03:20:24.914Z,21.60
2022-11-28T03:26:49.474Z,23.30
2022-11-28T03:30:01.910Z,23.30
2022-11-28T03:33:09.780Z,26.10
2022-11-28T03:36:22.697Z,25.00
2022-11-28T03:39:33.436Z,24.80
2022-11-28T03:42:43.829Z,26.50
2022-11-28T03:45:53.564Z,25.50
2022-11-28T03:49:02.221Z,26.50
2022-11-28T03:52:11.651Z,27.00
2022-11-28T03:55:23.564Z,24.20
2022-11-28T03:58:36.150Z,24.30
2022-11-28T04:01:53.849Z,24.70
2022-11-28T04:05:04.752Z,23.50
2022-11-28T04:08:18.589Z,23.40
2022-11-28T04:11:31.003Z,23.40
2022-11-28T04:14:39.764Z,23.80
2022-11-28T04:17:52.307Z,23.60
2022-11-28T04:21:04.724Z,24.50
2022-11-28T04:24:16.346Z,23.60
2022-11-28T04:27:25.446Z,25.50
2022-11-28T04:30:31.599Z,26.60
2022-11-28T04:33:41.058Z,29.30
2022-11-28T04:36:50.825Z,26.90
2022-11-28T04:39:58.119Z,28.30
2022-11-28T04:43:09.810Z,28.40
2022-11-28T04:46:19.462Z,31.20
2022-11-28T04:49:27.707Z,30.60
2022-11-28T04:52:41.611Z,28.30
2022-11-28T04:55:53.464Z,26.60
2022-11-28T04:59:01.618Z,25.50
2022-11-28T05:02:10.032Z,22.60
2022-11-28T05:05:19.384Z,24.80
2022-11-28T05:08:26.534Z,25.10
2022-11-28T05:11:33.266Z,24.90
2022-11-28T05:14:41.123Z,22.60
2022-11-28T05:17:47.904Z,22.40
2022-11-28T05:20:53.896Z,21.80
2022-11-28T05:24:00.217Z,21.70
2022-11-28T05:30:14.181Z,21.20
2022-11-28T05:33:20.228Z,20.70
2022-11-28T05:36:26.647Z,20.60
2022-11-28T05:39:33.141Z,22.10
2022-11-28T05:42:39.485Z,22.80
2022-11-28T05:48:50.889Z,21.40
2022-11-28T05:51:57.027Z,22.60
2022-11-28T05:55:03.247Z,21.70
2022-11-28T05:58:09.852Z,20.70
2022-11-28T06:01:18.360Z,20.10
2022-11-28T06:04:24.589Z,19.30
2022-11-28T06:07:30.825Z,20.60
2022-11-28T06:13:41.867Z,18.70
2022-11-28T06:16:47.885Z,19.40
2022-11-28T06:19:54.126Z,18.80
2022-11-28T06:23:00.143Z,18.80
2022-11-28T06:26:09.885Z,17.40
2022-11-28T06:29:16.303Z,18.80
2022-11-28T06:32:22.470Z,17.70
2022-11-28T06:35:28.696Z,19.60
2022-11-28T06:38:35.327Z,18.30
2022-11-28T06:41:41.597Z,18.50
2022-11-28T06:44:47.671Z,19.40
2022-11-28T06:47:53.838Z,18.00
2022-11-28T06:51:06.068Z,17.40
2022-11-28T06:54:12.678Z,18.20
2022-11-28T06:57:19.129Z,17.80
2022-11-28T07:00:25.487Z,19.50
2022-11-28T07:06:36.773Z,21.00
2022-11-28T07:09:43.192Z,17.60
2022-11-28T07:12:54.207Z,20.30
2022-11-28T07:16:00.302Z,18.20
2022-11-28T07:19:06.996Z,19.60
2022-11-28T07:34:50.326Z,17.30
2022-11-28T07:37:53.992Z,16.70
2022-11-28T07:41:03.667Z,17.70
2022-11-28T07:44:07.279Z,19.00
2022-11-28T07:47:10.715Z,21.20
2022-11-28T07:50:14.078Z,20.10
2022-11-28T07:53:17.687Z,19.70
2022-11-28T07:56:22.254Z,20.00
2022-11-28T07:59:25.723Z,23.40
2022-11-28T08:02:31.732Z,21.70
2022-11-28T08:05:35.213Z,21.60
2022-11-28T08:08:38.709Z,21.50
2022-11-28T08:11:42.588Z,20.10
2022-11-28T08:14:46.190Z,21.70
2022-11-28T08:17:49.693Z,22.00
2022-11-28T08:20:52.961Z,19.00
2022-11-28T08:23:58.944Z,20.20
2022-11-28T08:27:02.373Z,21.20
2022-11-28T08:30:08.816Z,21.70
2022-11-28T08:33:13.239Z,22.90
2022-11-28T08:36:18.611Z,22.30
2022-11-28T08:39:24.955Z,21.60
2022-11-28T08:42:29.676Z,20.80
2022-11-28T08:45:34.429Z,20.80
2022-11-28T08:48:38.627Z,21.20
2022-11-28T08:51:42.137Z,22.10
2022-11-28T08:54:45.846Z,20.80
2022-11-28T08:57:49.444Z,21.50
2022-11-28T09:00:52.880Z,19.70
2022-11-28T09:03:57.003Z,18.80
2022-11-28T09:07:00.512Z,19.50
2022-11-28T09:10:05.948Z,18.00
2022-11-28T09:13:09.816Z,15.70
2022-11-28T09:16:14.334Z,16.70
2022-11-28T09:19:17.833Z,16.50
2022-11-28T09:22:21.265Z,17.10
2022-11-28T09:25:24.781Z,14.00
2022-11-28T09:28:28.318Z,14.40
2022-11-28T09:31:31.825Z,13.70
2022-11-28T09:34:35.239Z,13.50
2022-11-28T09:37:38.573Z,9.90
2022-11-28T09:40:44.498Z,10.10
2022-11-28T09:43:54.545Z,11.10
2022-11-28T09:47:02.155Z,10.00
2022-11-28T09:50:14.769Z,9.80
2022-11-28T09:53:24.454Z,8.30
2022-11-28T09:56:28.833Z,8.70
2022-11-28T09:59:32.577Z,7.60
2022-11-28T10:02:43.416Z,7.60
2022-11-28T10:05:53.470Z,7.60
2022-11-28T10:09:15.390Z,8.40
2022-11-28T10:12:33.035Z,10.00
2022-11-28T10:15:44.417Z,9.40
2022-11-28T10:18:50.772Z,7.70
2022-11-28T10:25:11.214Z,8.20
2022-11-28T10:28:18.147Z,6.30
2022-11-28T10:31:31.830Z,5.00
2022-11-28T10:34:41.358Z,4.20
2022-11-28T10:37:44.978Z,4.20
2022-11-28T10:40:55.863Z,4.60
2022-11-28T10:44:06.628Z,4.40
2022-11-28T10:47:20.263Z,4.10
2022-11-28T10:50:33.124Z,4.20
2022-11-28T10:53:49.309Z,5.10
2022-11-28T11:00:06.317Z,4.30
2022-11-28T11:03:16.572Z,4.70
2022-11-28T11:06:20.078Z,4.80
2022-11-28T11:09:23.580Z,6.30
2022-11-28T11:12:31.281Z,5.10
2022-11-28T11:15:35.631Z,5.00
2022-11-28T11:18:53.949Z,4.70
2022-11-28T11:22:03.810Z,5.40
2022-11-28T11:25:13.951Z,4.70
2022-11-28T11:28:33.740Z,5.20
2022-11-28T11:31:43.940Z,5.10
2022-11-28T11:34:47.884Z,4.90
2022-11-28T11:37:51.747Z,5.00
2022-11-28T11:40:55.366Z,4.60
2022-11-28T11:44:28.720Z,5.20
2022-11-28T11:47:42.620Z,5.20
2022-11-28T11:50:54.435Z,4.80
2022-11-28T11:54:06.070Z,5.20
2022-11-28T11:57:32.002Z,5.30
2022-11-28T12:00:39.924Z,4.60
2022-11-28T12:03:53.298Z,4.30
2022-11-28T12:07:00.553Z,5.00
2022-11-28T12:10:07.313Z,5.00
2022-11-28T12:13:18.697Z,4.30
2022-11-28T12:16:40.875Z,4.60
2022-11-28T12:19:54.358Z,4.70
2022-11-28T12:23:10.840Z,4.60
2022-11-28T12:26:23.266Z,4.40
2022-11-28T12:29:43.539Z,4.70
2022-11-28T12:32:55.052Z,4.10
2022-11-28T12:36:10.565Z,4.20
2022-11-28T12:39:34.855Z,4.30
2022-11-28T12:42:49.651Z,3.90
2022-11-28T12:45:59.795Z,4.60
2022-11-28T12:49:17.906Z,4.50
2022-11-28T12:52:31.507Z,4.90
2022-11-28T12:55:44.967Z,4.70
2022-11-28T12:58:57.696Z,4.30
2022-11-28T13:02:16.025Z,4.20
2022-11-28T13:05:32.637Z,4.10
2022-11-28T13:09:00.223Z,3.90
2022-11-28T13:12:17.349Z,4.30
2022-11-28T13:15:35.690Z,4.40
2022-11-28T13:18:44.602Z,4.30
2022-11-28T13:21:58.614Z,4.50
2022-11-28T13:25:09.934Z,4.40
2022-11-28T13:28:19.997Z,3.90
2022-11-28T13:31:28.988Z,4.20
2022-11-28T13:34:34.271Z,4.70
2022-11-28T13:41:43.253Z,5.20
2022-11-28T13:44:50.405Z,4.40
2022-11-28T13:47:55.747Z,4.70
2022-11-28T13:51:01.974Z,5.10
2022-11-28T13:54:47.406Z,4.60
2022-11-28T13:57:51.867Z,4.70
2022-11-28T14:01:08.599Z,4.50
2022-11-28T14:04:14.312Z,4.70
2022-11-28T14:07:26.166Z,6.10
2022-11-28T14:10:53.749Z,6.50
2022-11-28T14:14:20.599Z,5.60
2022-11-28T14:17:40.177Z,5.00
2022-11-28T14:20:54.019Z,4.10
2022-11-28T14:24:04.382Z,4.20
2022-11-28T14:27:15.734Z,4.60
2022-11-28T14:30:30.641Z,4.50
2022-11-28T14:33:37.014Z,4.80
2022-11-28T14:39:45.448Z,6.20
2022-11-28T14:43:09.014Z,8.10
2022-11-28T14:46:30.765Z,7.80
2022-11-28T14:49:34.447Z,9.20
2022-11-28T14:52:40.561Z,7.00
2022-11-28T14:55:44.412Z,6.30
2022-11-28T14:58:49.583Z,6.40
2022-11-28T15:02:01.836Z,9.40
2022-11-28T15:05:19.706Z,16.00
2022-11-28T15:08:50.341Z,11.30
2022-11-28T15:12:10.801Z,10.00
2022-11-28T15:15:16.938Z,5.70
2022-11-28T15:18:22.243Z,9.30
2022-11-28T15:21:25.651Z,12.20
2022-11-28T15:24:31.591Z,7.60
2022-11-28T15:27:35.501Z,6.80
2022-11-28T15:30:45.368Z,7.60
2022-11-28T15:33:49.637Z,7.30
2022-11-28T15:36:53.984Z,6.90
2022-11-28T15:39:59.056Z,86.50
2022-11-28T15:43:09.485Z,10.30
2022-11-28T15:46:19.429Z,12.00
2022-11-28T15:49:29.427Z,44.00
2022-11-28T15:52:33.018Z,86.70
2022-11-28T15:55:36.525Z,15.30
2022-11-28T15:58:41.267Z,16.90
2022-11-28T16:01:45.102Z,23.80
2022-11-28T16:04:48.918Z,21.40
2022-11-28T16:07:52.585Z,18.10
2022-11-28T16:10:57.218Z,12.80
2022-11-28T16:14:08.281Z,12.70
2022-11-28T16:17:18.994Z,13.00
2022-11-28T16:20:25.351Z,15.30
2022-11-28T16:26:35.495Z,18.60
2022-11-28T16:29:47.024Z,14.80
2022-11-28T16:32:52.138Z,16.50
2022-11-28T16:36:17.193Z,20.60
2022-11-28T16:39:20.737Z,19.20
2022-11-28T16:42:24.327Z,17.60
2022-11-28T16:45:30.666Z,17.40
2022-11-28T16:48:36.741Z,19.50
2022-11-28T16:51:41.133Z,18.20
2022-11-28T16:54:44.570Z,18.10
2022-11-28T16:57:53.769Z,20.50
2022-11-28T17:01:02.079Z,20.00
2022-11-28T17:04:06.013Z,23.00
2022-11-28T17:07:13.174Z,33.10
2022-11-28T17:10:17.092Z,24.30
2022-11-28T17:13:21.396Z,26.10
2022-11-28T17:16:25.974Z,25.20
2022-11-28T17:19:29.298Z,31.30
2022-11-28T17:22:40.787Z,27.00
2022-11-28T17:25:44.636Z,24.20
2022-11-28T17:28:48.092Z,23.90
2022-11-28T17:31:54.582Z,20.50
2022-11-28T17:35:02.775Z,17.10
2022-11-28T17:38:06.217Z,17.00
2022-11-28T17:41:13.541Z,20.20
2022-11-28T17:44:20.861Z,16.80
2022-11-28T17:47:24.148Z,18.50
2022-11-28T17:50:27.861Z,25.90
2022-11-28T17:53:31.310Z,29.60
2022-11-28T17:56:34.754Z,20.40
2022-11-28T17:59:38.067Z,23.50
2022-11-28T18:02:41.629Z,21.80
2022-11-28T18:05:46.516Z,24.90
2022-11-28T18:08:50.593Z,34.10
2022-11-28T18:11:53.984Z,34.20
2022-11-28T18:14:59.150Z,33.00
2022-11-28T18:18:03.813Z,33.20
2022-11-28T18:21:08.478Z,36.00
2022-11-28T18:24:11.866Z,33.80
2022-11-28T18:27:15.280Z,33.60
2022-11-28T18:30:19.301Z,31.10
2022-11-28T18:33:22.608Z,30.20
2022-11-28T18:36:27.069Z,31.00
2022-11-28T18:39:30.841Z,32.30
2022-11-28T18:42:34.156Z,37.70
2022-11-28T18:45:37.573Z,39.60
2022-11-28T18:48:42.986Z,39.10
2022-11-28T18:51:46.369Z,42.50
2022-11-28T18:54:49.804Z,43.90
2022-11-28T18:57:53.164Z,34.70
2022-11-28T19:00:56.756Z,32.40
2022-11-28T19:04:02.076Z,31.40
2022-11-28T19:07:05.557Z,27.00
2022-11-28T19:10:12.033Z,26.00
2022-11-28T19:13:15.668Z,28.50
2022-11-28T19:16:20.808Z,28.90
2022-11-28T19:19:24.345Z,32.60
2022-11-28T19:22:27.752Z,39.70
2022-11-28T19:25:31.970Z,42.40
2022-11-28T19:28:36.969Z,51.00
2022-11-28T19:31:41.300Z,48.40
2022-11-28T19:34:44.821Z,44.00
2022-11-28T19:37:48.137Z,34.50
2022-11-28T19:40:51.561Z,29.80
2022-11-28T19:43:55.285Z,29.30
2022-11-28T19:46:58.811Z,31.00
2022-11-28T19:50:02.145Z,38.70
2022-11-28T19:53:05.632Z,43.30
2022-11-28T19:56:13.199Z,40.40
2022-11-28T19:59:17.595Z,41.60
2022-11-28T20:02:22.818Z,38.90
2022-11-28T20:05:26.333Z,53.70
2022-11-28T20:08:29.798Z,41.50
2022-11-28T20:11:34.852Z,40.50
2022-11-28T20:14:38.277Z,39.40
2022-11-28T20:17:41.837Z,43.80
2022-11-28T20:20:45.334Z,52.90
2022-11-28T20:23:49.822Z,49.40
2022-11-28T20:26:53.464Z,59.60
2022-11-28T20:29:57.069Z,54.30
2022-11-28T20:33:00.498Z,80.70
2022-11-28T20:36:10.223Z,54.10
2022-11-28T20:39:13.728Z,61.00
2022-11-28T20:42:17.522Z,64.50
2022-11-28T20:45:21.026Z,54.90
2022-11-28T20:48:24.418Z,54.10
2022-11-28T20:51:29.835Z,53.30
2022-11-28T20:54:33.194Z,62.40
2022-11-28T20:57:36.569Z,47.20
2022-11-28T21:00:39.891Z,38.40
2022-11-28T21:03:43.409Z,33.50
2022-11-28T21:06:48.527Z,33.60
2022-11-28T21:09:53.477Z,32.70
2022-11-28T21:12:56.942Z,28.20
2022-11-28T21:16:06.639Z,28.90
2022-11-28T21:19:10.395Z,28.30
2022-11-28T21:22:13.676Z,27.70
2022-11-28T21:25:17.187Z,30.60
2022-11-28T21:28:20.488Z,48.80
2022-11-28T21:31:26.148Z,45.40
2022-11-28T21:34:29.643Z,42.80
2022-11-28T21:37:33.247Z,46.20
2022-11-28T21:40:36.646Z,49.00
2022-11-28T21:43:40.148Z,43.40
2022-11-28T21:46:43.883Z,42.00
2022-11-28T21:49:47.268Z,40.50
2022-11-28T21:52:50.802Z,45.10
2022-11-28T21:55:54.869Z,54.00
2022-11-28T21:58:58.268Z,47.90
2022-11-28T22:02:02.664Z,49.20
2022-11-28T22:05:09.547Z,54.80
2022-11-28T22:08:12.974Z,58.30
2022-11-28T22:11:17.063Z,46.60
2022-11-28T22:14:20.487Z,34.40
2022-11-28T22:17:24.498Z,35.30
2022-11-28T22:20:27.891Z,29.90
2022-11-28T22:23:34.521Z,29.20
2022-11-28T22:26:37.957Z,39.40
2022-11-28T22:29:41.374Z,43.10
2022-11-28T22:32:44.872Z,43.00
2022-11-28T22:35:48.217Z,42.70
2022-11-28T22:38:56.097Z,46.10
2022-11-28T22:41:59.726Z,46.70
2022-11-28T22:45:03.758Z,47.50
2022-11-28T22:48:07.997Z,50.20
2022-11-28T22:51:14.136Z,78.90
2022-11-28T22:54:17.549Z,47.40
2022-11-28T22:57:21.025Z,39.70
2022-11-28T23:00:24.463Z,39.10
2022-11-28T23:03:28.132Z,32.40
2022-11-28T23:06:34.169Z,30.50
2022-11-28T23:09:37.461Z,30.20
2022-11-28T23:12:41.446Z,28.80
2022-11-28T23:15:49.740Z,32.50
2022-11-28T23:18:58.255Z,30.00
2022-11-28T23:22:01.808Z,31.40
2022-11-28T23:25:06.529Z,30.70
2022-11-28T23:28:09.909Z,99.80
2022-11-28T23:31:16.022Z,43.20
2022-11-28T23:34:19.348Z,42.50
2022-11-28T23:37:22.773Z,39.40
2022-11-28T23:40:26.376Z,46.10
2022-11-28T23:43:29.879Z,42.60
2022-11-28T23:46:34.037Z,46.50
2022-11-28T23:49:37.509Z,52.30
2022-11-28T23:52:40.893Z,48.40
2022-11-28T23:55:44.396Z,55.20
2022-11-28T23:58:48.608Z,53.70
